Alexander Duff — WDD9658 — position and weather

sailwx.info

Track history (hours):
 
Tides and Currents Weather Stations Pressure Air Temp Water Temp Dewpoint Dewpoint Depression Visibility Wind Speed Wind Dir Waves Ship Positions

Alexander Duff

Owner: Vane Line Bunkering, Philadelphia, PA. More information available from US FCC via Universal Licensing System and Coast Guard Vessel Documentation Center.

Last reported at 2017-Dec-11 17:01 UTC. Time now 2017-Dec-11 19:04 UTC.
Position N 36°48' W 076°18'.

Length 19 m; draft 2 m.

MMSI: 367314530.

Date/timePositionNaut miles runAvg speedWind from/ knotsBaromVisibWave heightAir tempDewpointWater temp
2017-Dec-11 17:01N 36°48' W 076°18'0 0.0
2017-Dec-11 16:31N 36°48' W 076°18'0 0.0
2017-Dec-11 16:01N 36°48' W 076°18'0 0.0
2017-Dec-11 15:31N 36°48' W 076°18'0 0.0
2017-Dec-11 15:01N 36°48' W 076°18'0 0.0
2017-Dec-11 14:31N 36°48' W 076°18'0 0.0
2017-Dec-11 14:01N 36°48' W 076°18'0 0.0
2017-Dec-11 13:31N 36°48' W 076°18'0 0.0
2017-Dec-11 13:01N 36°48' W 076°18'0 0.0
2017-Dec-11 12:31N 36°48' W 076°18'0 0.0
2017-Dec-11 12:01N 36°48' W 076°18'0 0.0
2017-Dec-11 11:31N 36°48' W 076°18'0 0.0
2017-Dec-11 11:01N 36°48' W 076°18'0 0.0
2017-Dec-11 10:31N 36°48' W 076°18'0 0.0
2017-Dec-11 10:01N 36°48' W 076°18'0 0.0
2017-Dec-11 09:31N 36°48' W 076°18'0 0.0
2017-Dec-11 09:01N 36°48' W 076°18'0 0.0
2017-Dec-11 08:31N 36°48' W 076°18'0 0.0
2017-Dec-11 08:01N 36°48' W 076°18'3 6.1
2017-Dec-11 07:30N 36°51' W 076°18'4 7.0
2017-Dec-11 07:01N 36°54' W 076°20'5 3.6
2017-Dec-11 05:45N 36°59' W 076°20'0 0.0
2017-Dec-11 04:24N 36°59' W 076°20'0 0.1
2017-Dec-11 04:00N 36°59' W 076°20'5 5.8
2017-Dec-11 03:10N 36°54' W 076°20'1 7.2
2017-Dec-11 03:00N 36°53' W 076°20'3 6.8
2017-Dec-11 02:31N 36°50' W 076°18'3 6.4
2017-Dec-11 02:01N 36°47' W 076°19'0 0.4
2017-Dec-11 01:31N 36°47' W 076°18'0 0.0
2017-Dec-11 01:01N 36°47' W 076°18'0 0.0
2017-Dec-11 00:31N 36°47' W 076°18'0 0.0
2017-Dec-11 00:01N 36°47' W 076°18'0 0.0
2017-Dec-10 23:30N 36°47' W 076°18'0 0.0
2017-Dec-10 23:01N 36°47' W 076°18'1 2.3
2017-Dec-10 22:31N 36°48' W 076°18'0 0.6
2017-Dec-10 22:01N 36°48' W 076°18'0 0.0
2017-Dec-10 21:31N 36°48' W 076°18'0 0.0
2017-Dec-10 21:01N 36°48' W 076°18'0 0.0
2017-Dec-10 20:31N 36°48' W 076°18'0 0.0
2017-Dec-10 20:01N 36°48' W 076°18'0 0.0
2017-Dec-10 19:31N 36°48' W 076°18'0 0.0
2017-Dec-10 19:01N 36°48' W 076°18'0 0.0
2017-Dec-10 18:31N 36°48' W 076°18'0 0.0
2017-Dec-10 18:00N 36°48' W 076°18'0 0.0
2017-Dec-10 17:31N 36°48' W 076°18'0 0.0
2017-Dec-10 17:01N 36°48' W 076°18'1 1.4
2017-Dec-10 16:31N 36°49' W 076°17'2 4.6
2017-Dec-10 16:01N 36°50' W 076°15'1 2.2
2017-Dec-10 15:31N 36°50' W 076°17'3 5.8
2017-Dec-10 15:01N 36°48' W 076°18'2 4.4
2017-Dec-10 14:31N 36°45' W 076°18'2 4.3
2017-Dec-10 14:01N 36°44' W 076°16'1 2.8
2017-Dec-10 13:31N 36°43' W 076°14'4 5.0
2017-Dec-10 12:47N 36°43' W 076°10'2 5.5
2017-Dec-10 12:30N 36°43' W 076°08'4 0.1
2017-Dec-09 02:32N 36°43' W 076°13'1 3.7
2017-Dec-09 02:18N 36°43' W 076°14'1 2.1
2017-Dec-09 02:01N 36°43' W 076°14'1 1.0
2017-Dec-09 01:29N 36°43' W 076°15'2 3.8
2017-Dec-09 01:00N 36°44' W 076°17'2 4.2
2017-Dec-09 00:30N 36°46' W 076°18'2 3.1
2017-Dec-09 00:01N 36°48' W 076°18'0 0.8
2017-Dec-08 23:30N 36°48' W 076°18'0 0.0
2017-Dec-08 23:01N 36°48' W 076°18'0 0.0
2017-Dec-08 22:31N 36°48' W 076°18'0 0.0
2017-Dec-08 22:00N 36°48' W 076°18'0 0.0
2017-Dec-08 21:31N 36°48' W 076°18'0 0.0
2017-Dec-08 21:01N 36°48' W 076°18'0 0.0
2017-Dec-08 20:31N 36°48' W 076°18'0 0.0
2017-Dec-08 20:01N 36°48' W 076°18'0 0.0
2017-Dec-08 19:31N 36°48' W 076°18'0 0.0
2017-Dec-08 19:01N 36°48' W 076°18'0 0.0
2017-Dec-08 18:31N 36°48' W 076°18'0 0.0
2017-Dec-08 18:01N 36°48' W 076°18'0 0.2
2017-Dec-08 17:31N 36°48' W 076°18'3 6.1
2017-Dec-08 17:01N 36°51' W 076°18'3 5.5
2017-Dec-08 16:30N 36°53' W 076°20'0 0.0
2017-Dec-08 16:01N 36°53' W 076°20'0 0.0
2017-Dec-08 15:31N 36°53' W 076°20'0 0.0
2017-Dec-08 15:01N 36°53' W 076°20'0 0.0
2017-Dec-08 14:31N 36°53' W 076°20'0 0.0
2017-Dec-08 14:01N 36°53' W 076°20'0 0.0
2017-Dec-08 13:30N 36°53' W 076°20'0 0.0
2017-Dec-08 13:01N 36°53' W 076°20'0 0.0
2017-Dec-08 12:31N 36°53' W 076°20'0 0.0
2017-Dec-08 12:01N 36°53' W 076°20'0 0.0
2017-Dec-08 11:31N 36°53' W 076°20'0 0.0
2017-Dec-08 11:01N 36°53' W 076°20'0 0.0
2017-Dec-08 10:31N 36°53' W 076°20'0 0.0
2017-Dec-08 10:01N 36°53' W 076°20'3 5.0
2017-Dec-08 09:31N 36°51' W 076°18'3 5.9
2017-Dec-08 09:01N 36°50' W 076°15'2 4.6
2017-Dec-08 08:31N 36°50' W 076°18'2 3.4
2017-Dec-08 08:01N 36°48' W 076°17'3 6.3
2017-Dec-08 07:31N 36°51' W 076°19'3 6.5
2017-Dec-08 07:00N 36°54' W 076°20'5 4.6
2017-Dec-08 05:52N 36°58' W 076°25'0 0.0
2017-Dec-08 05:08N 36°58' W 076°25'0 0.0
2017-Dec-08 04:59N 36°58' W 076°25'2 0.5
2017-Dec-08 00:20N 36°57' W 076°23'2 5.9
2017-Dec-07 23:59N 36°56' W 076°21'3 6.6
2017-Dec-07 23:29N 36°53' W 076°20'3 6.5
2017-Dec-07 23:01N 36°51' W 076°18'3 6.3
2017-Dec-07 22:31N 36°47' W 076°18'1 1.6
2017-Dec-07 22:01N 36°47' W 076°18'0 0.0
2017-Dec-07 21:31N 36°47' W 076°18'0 0.0
2017-Dec-07 21:01N 36°47' W 076°18'0 0.0
2017-Dec-07 20:31N 36°47' W 076°18'0 0.0
2017-Dec-07 20:01N 36°47' W 076°18'0 0.0
2017-Dec-07 19:31N 36°47' W 076°18'0 0.5
2017-Dec-07 19:01N 36°47' W 076°18'1 2.6
2017-Dec-07 18:31N 36°48' W 076°18'0 0.0
2017-Dec-07 18:01N 36°48' W 076°18'0 0.0
2017-Dec-07 17:31N 36°48' W 076°18'0 0.0
2017-Dec-07 17:01N 36°48' W 076°18'0 0.0
2017-Dec-07 16:31N 36°48' W 076°18'0 0.0
2017-Dec-07 16:01N 36°48' W 076°18'0 0.0
2017-Dec-07 15:31N 36°48' W 076°18'0 0.0
2017-Dec-07 15:01N 36°48' W 076°18'0 0.0
2017-Dec-07 14:31N 36°48' W 076°18'0 0.0
2017-Dec-07 14:01N 36°48' W 076°18'0 0.0
2017-Dec-07 13:31N 36°48' W 076°18'0 0.0
2017-Dec-07 13:01N 36°48' W 076°18'0 0.0
2017-Dec-07 12:31N 36°48' W 076°18'0 0.0
2017-Dec-07 12:01N 36°48' W 076°18'2 5.0
2017-Dec-07 11:31N 36°50' W 076°18'3 1.9
2017-Dec-07 10:02N 36°53' W 076°20'0 0.0
2017-Dec-07 08:55N 36°53' W 076°20'0 0.0
2017-Dec-07 08:29N 36°53' W 076°20'2 4.2
2017-Dec-07 08:01N 36°51' W 076°18'3 6.9
2017-Dec-07 07:31N 36°48' W 076°18'1 2.4
2017-Dec-07 07:01N 36°47' W 076°18'0 0.0
2017-Dec-07 06:31N 36°47' W 076°18'0 0.0
2017-Dec-07 06:01N 36°47' W 076°18'2 3.2
2017-Dec-07 05:31N 36°48' W 076°18'0 0.3
2017-Dec-07 05:01N 36°48' W 076°18'0 0.0
2017-Dec-07 04:31N 36°48' W 076°18'0 0.0
2017-Dec-07 04:01N 36°48' W 076°18'0 0.0
2017-Dec-07 03:31N 36°48' W 076°18'0 0.0
2017-Dec-07 03:01N 36°48' W 076°18'0 0.0
2017-Dec-07 02:31N 36°48' W 076°18'0 0.0
2017-Dec-07 02:01N 36°48' W 076°18'0 0.0
2017-Dec-07 01:31N 36°48' W 076°18'0 0.0
2017-Dec-07 01:00N 36°48' W 076°18'0 0.0
2017-Dec-07 00:31N 36°48' W 076°18'0 0.0
2017-Dec-07 00:01N 36°48' W 076°18'0 0.0
2017-Dec-06 23:30N 36°48' W 076°18'0 0.0
2017-Dec-06 23:01N 36°48' W 076°18'0 0.5
2017-Dec-06 22:31N 36°48' W 076°18'0 0.0
2017-Dec-06 22:01N 36°48' W 076°18'0 0.0
2017-Dec-06 21:31N 36°48' W 076°18'0 0.0
2017-Dec-06 21:01N 36°48' W 076°18'  
2017-Dec-04 10:31N 36°48' W 076°18'0 0.0
2017-Dec-04 10:01N 36°48' W 076°18'0 0.0
2017-Dec-04 09:31N 36°48' W 076°18'1 1.8
2017-Dec-04 09:01N 36°47' W 076°18'1 1.1
2017-Dec-04 08:31N 36°47' W 076°18'0 0.0
2017-Dec-04 08:01N 36°47' W 076°18'0 0.0
2017-Dec-04 07:31N 36°47' W 076°18'0 0.0
2017-Dec-04 07:01N 36°47' W 076°18'0 0.0
2017-Dec-04 06:31N 36°47' W 076°18'0 0.0
2017-Dec-04 06:01N 36°47' W 076°18'3 5.3
2017-Dec-04 05:31N 36°49' W 076°17'3 6.1
2017-Dec-04 05:00N 36°52' W 076°19'3 6.4
2017-Dec-04 04:30N 36°55' W 076°20'5 1.9
2017-Dec-04 01:58N 36°58' W 076°25'1 0.7
2017-Dec-03 23:59N 36°57' W 076°24'5 1.3
2017-Dec-03 20:01N 36°53' W 076°20'3 6.6
2017-Dec-03 19:31N 36°50' W 076°18'3 5.8
2017-Dec-03 19:01N 36°47' W 076°18'1 1.8
2017-Dec-03 18:31N 36°47' W 076°18'0 0.0
2017-Dec-03 18:01N 36°47' W 076°18'0 0.0
2017-Dec-03 17:31N 36°47' W 076°18'0 0.0
2017-Dec-03 17:01N 36°47' W 076°18'0 0.0
2017-Dec-03 16:31N 36°47' W 076°18'0 0.0
2017-Dec-03 16:01N 36°47' W 076°18'0 0.0
2017-Dec-03 15:31N 36°47' W 076°18'0 0.0
2017-Dec-03 15:01N 36°47' W 076°18'2 3.1
2017-Dec-03 14:31N 36°48' W 076°18'0 0.2
2017-Dec-03 14:01N 36°48' W 076°18'0 0.0
2017-Dec-03 13:31N 36°48' W 076°18'0 0.0
2017-Dec-03 13:01N 36°48' W 076°18'0 0.0
2017-Dec-03 12:31N 36°48' W 076°18'0 0.0
2017-Dec-03 12:01N 36°48' W 076°18'0 0.0
2017-Dec-03 11:31N 36°48' W 076°18'0 0.0
2017-Dec-03 11:01N 36°48' W 076°18'0 0.0
2017-Dec-03 10:31N 36°48' W 076°18'0 0.0
2017-Dec-03 10:01N 36°48' W 076°18'0 0.0
2017-Dec-03 09:31N 36°48' W 076°18'0 0.0
2017-Dec-03 09:01N 36°48' W 076°18'0 0.0
2017-Dec-03 08:31N 36°48' W 076°18'0 0.0
2017-Dec-03 08:01N 36°48' W 076°18'0 0.0
2017-Dec-03 07:31N 36°48' W 076°18'0 0.0
2017-Dec-03 07:01N 36°48' W 076°18'0 0.0
2017-Dec-03 06:31N 36°48' W 076°18'0 0.0
2017-Dec-03 06:01N 36°48' W 076°18'0 0.0
2017-Dec-03 05:31N 36°48' W 076°18'0 0.0
2017-Dec-03 05:01N 36°48' W 076°18'0 0.0
2017-Dec-03 04:31N 36°48' W 076°18'0 0.0
2017-Dec-03 04:01N 36°48' W 076°18'0 0.0
2017-Dec-03 03:31N 36°48' W 076°18'0 0.0
2017-Dec-03 03:01N 36°48' W 076°18'0 0.0
2017-Dec-03 02:31N 36°48' W 076°18'0 0.0
2017-Dec-03 02:01N 36°48' W 076°18'0 0.0
2017-Dec-03 01:31N 36°48' W 076°18'0 0.0
2017-Dec-03 01:01N 36°48' W 076°18'0 0.0
2017-Dec-03 00:31N 36°48' W 076°18'0 0.0
2017-Dec-03 00:01N 36°48' W 076°18'0 0.0
2017-Dec-02 23:31N 36°48' W 076°18'0 0.7
2017-Dec-02 23:01N 36°48' W 076°18'1 2.8
2017-Dec-02 22:31N 36°46' W 076°18'1 1.5
2017-Dec-02 22:01N 36°45' W 076°18'2 3.1
2017-Dec-02 21:31N 36°44' W 076°17'2 3.6
2017-Dec-02 20:58N 36°43' W 076°15'5 5.1
2017-Dec-02 19:53N 36°43' W 076°08'2 4.8
2017-Dec-02 19:30N 36°43' W 076°06'0 0.0
2017-Dec-02 04:10N 36°43' W 076°06'0 1.9
2017-Dec-02 04:00N 36°43' W 076°06'2 2.9
2017-Dec-02 03:29N 36°43' W 076°08'2 3.2
2017-Dec-02 03:00N 36°43' W 076°10'2 3.3
2017-Dec-02 02:29N 36°43' W 076°12'2 3.7
2017-Dec-02 02:01N 36°43' W 076°14'1 1.4
2017-Dec-02 01:30N 36°43' W 076°15'2 4.0
2017-Dec-02 01:01N 36°44' W 076°17'2 4.0
2017-Dec-02 00:31N 36°46' W 076°18'2 3.7
2017-Dec-02 00:00N 36°48' W 076°18'0 0.3
2017-Dec-01 23:31N 36°48' W 076°18'0 0.0
2017-Dec-01 23:01N 36°48' W 076°18'0 0.0
2017-Dec-01 22:31N 36°48' W 076°18'0 0.0
2017-Dec-01 22:01N 36°48' W 076°18'0 0.0
2017-Dec-01 21:31N 36°48' W 076°18'0 0.0
2017-Dec-01 21:01N 36°48' W 076°18'0 0.0
2017-Dec-01 20:31N 36°48' W 076°18'0 0.0
2017-Dec-01 20:01N 36°48' W 076°18'0 0.0
2017-Dec-01 19:31N 36°48' W 076°18'0 0.0
2017-Dec-01 19:01N 36°48' W 076°18'0 0.0
2017-Dec-01 18:31N 36°48' W 076°18'0 0.0
2017-Dec-01 18:01N 36°48' W 076°18'0 0.0
2017-Dec-01 17:31N 36°48' W 076°18'  
Track history (hours):
 
Tides and Currents Weather Stations Pressure Air Temp Water Temp Dewpoint Dewpoint Depression Visibility Wind Speed Wind Dir Waves Ship Positions

Alexander Duff

Owner: Vane Line Bunkering, Philadelphia, PA. More information available from US FCC via Universal Licensing System and Coast Guard Vessel Documentation Center.

Last reported at 2017-Dec-11 17:01 UTC. Time now 2017-Dec-11 19:04 UTC.
Position N 36°48' W 076°18'.

Length 19 m; draft 2 m.

MMSI: 367314530.

Date/timePositionNaut miles runAvg speedWind from/ knotsBaromVisibWave heightAir tempDewpointWater temp
2017-Dec-11 17:01N 36°48' W 076°18'0 0.0
2017-Dec-11 16:31N 36°48' W 076°18'0 0.0
2017-Dec-11 16:01N 36°48' W 076°18'0 0.0
2017-Dec-11 15:31N 36°48' W 076°18'0 0.0
2017-Dec-11 15:01N 36°48' W 076°18'0 0.0
2017-Dec-11 14:31N 36°48' W 076°18'0 0.0
2017-Dec-11 14:01N 36°48' W 076°18'0 0.0
2017-Dec-11 13:31N 36°48' W 076°18'0 0.0
2017-Dec-11 13:01N 36°48' W 076°18'0 0.0
2017-Dec-11 12:31N 36°48' W 076°18'0 0.0
2017-Dec-11 12:01N 36°48' W 076°18'0 0.0
2017-Dec-11 11:31N 36°48' W 076°18'0 0.0
2017-Dec-11 11:01N 36°48' W 076°18'0 0.0
2017-Dec-11 10:31N 36°48' W 076°18'0 0.0
2017-Dec-11 10:01N 36°48' W 076°18'0 0.0
2017-Dec-11 09:31N 36°48' W 076°18'0 0.0
2017-Dec-11 09:01N 36°48' W 076°18'0 0.0
2017-Dec-11 08:31N 36°48' W 076°18'0 0.0
2017-Dec-11 08:01N 36°48' W 076°18'3 6.1
2017-Dec-11 07:30N 36°51' W 076°18'4 7.0
2017-Dec-11 07:01N 36°54' W 076°20'5 3.6
2017-Dec-11 05:45N 36°59' W 076°20'0 0.0
2017-Dec-11 04:24N 36°59' W 076°20'0 0.1
2017-Dec-11 04:00N 36°59' W 076°20'5 5.8
2017-Dec-11 03:10N 36°54' W 076°20'1 7.2
2017-Dec-11 03:00N 36°53' W 076°20'3 6.8
2017-Dec-11 02:31N 36°50' W 076°18'3 6.4
2017-Dec-11 02:01N 36°47' W 076°19'0 0.4
2017-Dec-11 01:31N 36°47' W 076°18'0 0.0
2017-Dec-11 01:01N 36°47' W 076°18'0 0.0
2017-Dec-11 00:31N 36°47' W 076°18'0 0.0
2017-Dec-11 00:01N 36°47' W 076°18'0 0.0
2017-Dec-10 23:30N 36°47' W 076°18'0 0.0
2017-Dec-10 23:01N 36°47' W 076°18'1 2.3
2017-Dec-10 22:31N 36°48' W 076°18'0 0.6
2017-Dec-10 22:01N 36°48' W 076°18'0 0.0
2017-Dec-10 21:31N 36°48' W 076°18'0 0.0
2017-Dec-10 21:01N 36°48' W 076°18'0 0.0
2017-Dec-10 20:31N 36°48' W 076°18'0 0.0
2017-Dec-10 20:01N 36°48' W 076°18'0 0.0
2017-Dec-10 19:31N 36°48' W 076°18'0 0.0
2017-Dec-10 19:01N 36°48' W 076°18'0 0.0
2017-Dec-10 18:31N 36°48' W 076°18'0 0.0
2017-Dec-10 18:00N 36°48' W 076°18'0 0.0
2017-Dec-10 17:31N 36°48' W 076°18'0 0.0
2017-Dec-10 17:01N 36°48' W 076°18'1 1.4
2017-Dec-10 16:31N 36°49' W 076°17'2 4.6
2017-Dec-10 16:01N 36°50' W 076°15'1 2.2
2017-Dec-10 15:31N 36°50' W 076°17'3 5.8
2017-Dec-10 15:01N 36°48' W 076°18'2 4.4
2017-Dec-10 14:31N 36°45' W 076°18'2 4.3
2017-Dec-10 14:01N 36°44' W 076°16'1 2.8
2017-Dec-10 13:31N 36°43' W 076°14'4 5.0
2017-Dec-10 12:47N 36°43' W 076°10'2 5.5
2017-Dec-10 12:30N 36°43' W 076°08'4 0.1
2017-Dec-09 02:32N 36°43' W 076°13'1 3.7
2017-Dec-09 02:18N 36°43' W 076°14'1 2.1
2017-Dec-09 02:01N 36°43' W 076°14'1 1.0
2017-Dec-09 01:29N 36°43' W 076°15'2 3.8
2017-Dec-09 01:00N 36°44' W 076°17'2 4.2
2017-Dec-09 00:30N 36°46' W 076°18'2 3.1
2017-Dec-09 00:01N 36°48' W 076°18'0 0.8
2017-Dec-08 23:30N 36°48' W 076°18'0 0.0
2017-Dec-08 23:01N 36°48' W 076°18'0 0.0
2017-Dec-08 22:31N 36°48' W 076°18'0 0.0
2017-Dec-08 22:00N 36°48' W 076°18'0 0.0
2017-Dec-08 21:31N 36°48' W 076°18'0 0.0
2017-Dec-08 21:01N 36°48' W 076°18'0 0.0
2017-Dec-08 20:31N 36°48' W 076°18'0 0.0
2017-Dec-08 20:01N 36°48' W 076°18'0 0.0
2017-Dec-08 19:31N 36°48' W 076°18'0 0.0
2017-Dec-08 19:01N 36°48' W 076°18'0 0.0
2017-Dec-08 18:31N 36°48' W 076°18'0 0.0
2017-Dec-08 18:01N 36°48' W 076°18'0 0.2
2017-Dec-08 17:31N 36°48' W 076°18'3 6.1
2017-Dec-08 17:01N 36°51' W 076°18'3 5.5
2017-Dec-08 16:30N 36°53' W 076°20'0 0.0
2017-Dec-08 16:01N 36°53' W 076°20'0 0.0
2017-Dec-08 15:31N 36°53' W 076°20'0 0.0
2017-Dec-08 15:01N 36°53' W 076°20'0 0.0
2017-Dec-08 14:31N 36°53' W 076°20'0 0.0
2017-Dec-08 14:01N 36°53' W 076°20'0 0.0
2017-Dec-08 13:30N 36°53' W 076°20'0 0.0
2017-Dec-08 13:01N 36°53' W 076°20'0 0.0
2017-Dec-08 12:31N 36°53' W 076°20'0 0.0
2017-Dec-08 12:01N 36°53' W 076°20'0 0.0
2017-Dec-08 11:31N 36°53' W 076°20'0 0.0
2017-Dec-08 11:01N 36°53' W 076°20'0 0.0
2017-Dec-08 10:31N 36°53' W 076°20'0 0.0
2017-Dec-08 10:01N 36°53' W 076°20'3 5.0
2017-Dec-08 09:31N 36°51' W 076°18'3 5.9
2017-Dec-08 09:01N 36°50' W 076°15'2 4.6
2017-Dec-08 08:31N 36°50' W 076°18'2 3.4
2017-Dec-08 08:01N 36°48' W 076°17'3 6.3
2017-Dec-08 07:31N 36°51' W 076°19'3 6.5
2017-Dec-08 07:00N 36°54' W 076°20'5 4.6
2017-Dec-08 05:52N 36°58' W 076°25'0 0.0
2017-Dec-08 05:08N 36°58' W 076°25'0 0.0
2017-Dec-08 04:59N 36°58' W 076°25'2 0.5
2017-Dec-08 00:20N 36°57' W 076°23'2 5.9
2017-Dec-07 23:59N 36°56' W 076°21'3 6.6
2017-Dec-07 23:29N 36°53' W 076°20'3 6.5
2017-Dec-07 23:01N 36°51' W 076°18'3 6.3
2017-Dec-07 22:31N 36°47' W 076°18'1 1.6
2017-Dec-07 22:01N 36°47' W 076°18'0 0.0
2017-Dec-07 21:31N 36°47' W 076°18'0 0.0
2017-Dec-07 21:01N 36°47' W 076°18'0 0.0
2017-Dec-07 20:31N 36°47' W 076°18'0 0.0
2017-Dec-07 20:01N 36°47' W 076°18'0 0.0
2017-Dec-07 19:31N 36°47' W 076°18'0 0.5
2017-Dec-07 19:01N 36°47' W 076°18'1 2.6
2017-Dec-07 18:31N 36°48' W 076°18'0 0.0
2017-Dec-07 18:01N 36°48' W 076°18'0 0.0
2017-Dec-07 17:31N 36°48' W 076°18'0 0.0
2017-Dec-07 17:01N 36°48' W 076°18'0 0.0
2017-Dec-07 16:31N 36°48' W 076°18'0 0.0
2017-Dec-07 16:01N 36°48' W 076°18'0 0.0
2017-Dec-07 15:31N 36°48' W 076°18'0 0.0
2017-Dec-07 15:01N 36°48' W 076°18'0 0.0
2017-Dec-07 14:31N 36°48' W 076°18'0 0.0
2017-Dec-07 14:01N 36°48' W 076°18'0 0.0
2017-Dec-07 13:31N 36°48' W 076°18'0 0.0
2017-Dec-07 13:01N 36°48' W 076°18'0 0.0
2017-Dec-07 12:31N 36°48' W 076°18'0 0.0
2017-Dec-07 12:01N 36°48' W 076°18'2 5.0
2017-Dec-07 11:31N 36°50' W 076°18'3 1.9
2017-Dec-07 10:02N 36°53' W 076°20'0 0.0
2017-Dec-07 08:55N 36°53' W 076°20'0 0.0
2017-Dec-07 08:29N 36°53' W 076°20'2 4.2
2017-Dec-07 08:01N 36°51' W 076°18'3 6.9
2017-Dec-07 07:31N 36°48' W 076°18'1 2.4
2017-Dec-07 07:01N 36°47' W 076°18'0 0.0
2017-Dec-07 06:31N 36°47' W 076°18'0 0.0
2017-Dec-07 06:01N 36°47' W 076°18'2 3.2
2017-Dec-07 05:31N 36°48' W 076°18'0 0.3
2017-Dec-07 05:01N 36°48' W 076°18'0 0.0
2017-Dec-07 04:31N 36°48' W 076°18'0 0.0
2017-Dec-07 04:01N 36°48' W 076°18'0 0.0
2017-Dec-07 03:31N 36°48' W 076°18'0 0.0
2017-Dec-07 03:01N 36°48' W 076°18'0 0.0
2017-Dec-07 02:31N 36°48' W 076°18'0 0.0
2017-Dec-07 02:01N 36°48' W 076°18'0 0.0
2017-Dec-07 01:31N 36°48' W 076°18'0 0.0
2017-Dec-07 01:00N 36°48' W 076°18'0 0.0
2017-Dec-07 00:31N 36°48' W 076°18'0 0.0
2017-Dec-07 00:01N 36°48' W 076°18'0 0.0
2017-Dec-06 23:30N 36°48' W 076°18'0 0.0
2017-Dec-06 23:01N 36°48' W 076°18'0 0.5
2017-Dec-06 22:31N 36°48' W 076°18'0 0.0
2017-Dec-06 22:01N 36°48' W 076°18'0 0.0
2017-Dec-06 21:31N 36°48' W 076°18'0 0.0
2017-Dec-06 21:01N 36°48' W 076°18'  
2017-Dec-04 10:31N 36°48' W 076°18'0 0.0
2017-Dec-04 10:01N 36°48' W 076°18'0 0.0
2017-Dec-04 09:31N 36°48' W 076°18'1 1.8
2017-Dec-04 09:01N 36°47' W 076°18'1 1.1
2017-Dec-04 08:31N 36°47' W 076°18'0 0.0
2017-Dec-04 08:01N 36°47' W 076°18'0 0.0
2017-Dec-04 07:31N 36°47' W 076°18'0 0.0
2017-Dec-04 07:01N 36°47' W 076°18'0 0.0
2017-Dec-04 06:31N 36°47' W 076°18'0 0.0
2017-Dec-04 06:01N 36°47' W 076°18'3 5.3
2017-Dec-04 05:31N 36°49' W 076°17'3 6.1
2017-Dec-04 05:00N 36°52' W 076°19'3 6.4
2017-Dec-04 04:30N 36°55' W 076°20'5 1.9
2017-Dec-04 01:58N 36°58' W 076°25'1 0.7
2017-Dec-03 23:59N 36°57' W 076°24'5 1.3
2017-Dec-03 20:01N 36°53' W 076°20'3 6.6
2017-Dec-03 19:31N 36°50' W 076°18'3 5.8
2017-Dec-03 19:01N 36°47' W 076°18'1 1.8
2017-Dec-03 18:31N 36°47' W 076°18'0 0.0
2017-Dec-03 18:01N 36°47' W 076°18'0 0.0
2017-Dec-03 17:31N 36°47' W 076°18'0 0.0
2017-Dec-03 17:01N 36°47' W 076°18'0 0.0
2017-Dec-03 16:31N 36°47' W 076°18'0 0.0
2017-Dec-03 16:01N 36°47' W 076°18'0 0.0
2017-Dec-03 15:31N 36°47' W 076°18'0 0.0
2017-Dec-03 15:01N 36°47' W 076°18'2 3.1
2017-Dec-03 14:31N 36°48' W 076°18'0 0.2
2017-Dec-03 14:01N 36°48' W 076°18'0 0.0
2017-Dec-03 13:31N 36°48' W 076°18'0 0.0
2017-Dec-03 13:01N 36°48' W 076°18'0 0.0
2017-Dec-03 12:31N 36°48' W 076°18'0 0.0
2017-Dec-03 12:01N 36°48' W 076°18'0 0.0
2017-Dec-03 11:31N 36°48' W 076°18'0 0.0
2017-Dec-03 11:01N 36°48' W 076°18'0 0.0
2017-Dec-03 10:31N 36°48' W 076°18'0 0.0
2017-Dec-03 10:01N 36°48' W 076°18'0 0.0
2017-Dec-03 09:31N 36°48' W 076°18'0 0.0
2017-Dec-03 09:01N 36°48' W 076°18'0 0.0
2017-Dec-03 08:31N 36°48' W 076°18'0 0.0
2017-Dec-03 08:01N 36°48' W 076°18'0 0.0
2017-Dec-03 07:31N 36°48' W 076°18'0 0.0
2017-Dec-03 07:01N 36°48' W 076°18'0 0.0
2017-Dec-03 06:31N 36°48' W 076°18'0 0.0
2017-Dec-03 06:01N 36°48' W 076°18'0 0.0
2017-Dec-03 05:31N 36°48' W 076°18'0 0.0
2017-Dec-03 05:01N 36°48' W 076°18'0 0.0
2017-Dec-03 04:31N 36°48' W 076°18'0 0.0
2017-Dec-03 04:01N 36°48' W 076°18'0 0.0
2017-Dec-03 03:31N 36°48' W 076°18'0 0.0
2017-Dec-03 03:01N 36°48' W 076°18'0 0.0
2017-Dec-03 02:31N 36°48' W 076°18'0 0.0
2017-Dec-03 02:01N 36°48' W 076°18'0 0.0
2017-Dec-03 01:31N 36°48' W 076°18'0 0.0
2017-Dec-03 01:01N 36°48' W 076°18'0 0.0
2017-Dec-03 00:31N 36°48' W 076°18'0 0.0
2017-Dec-03 00:01N 36°48' W 076°18'0 0.0
2017-Dec-02 23:31N 36°48' W 076°18'0 0.7
2017-Dec-02 23:01N 36°48' W 076°18'1 2.8
2017-Dec-02 22:31N 36°46' W 076°18'1 1.5
2017-Dec-02 22:01N 36°45' W 076°18'2 3.1
2017-Dec-02 21:31N 36°44' W 076°17'2 3.6
2017-Dec-02 20:58N 36°43' W 076°15'5 5.1
2017-Dec-02 19:53N 36°43' W 076°08'2 4.8
2017-Dec-02 19:30N 36°43' W 076°06'0 0.0
2017-Dec-02 04:10N 36°43' W 076°06'0 1.9
2017-Dec-02 04:00N 36°43' W 076°06'2 2.9
2017-Dec-02 03:29N 36°43' W 076°08'2 3.2
2017-Dec-02 03:00N 36°43' W 076°10'2 3.3
2017-Dec-02 02:29N 36°43' W 076°12'2 3.7
2017-Dec-02 02:01N 36°43' W 076°14'1 1.4
2017-Dec-02 01:30N 36°43' W 076°15'2 4.0
2017-Dec-02 01:01N 36°44' W 076°17'2 4.0
2017-Dec-02 00:31N 36°46' W 076°18'2 3.7
2017-Dec-02 00:00N 36°48' W 076°18'0 0.3
2017-Dec-01 23:31N 36°48' W 076°18'0 0.0
2017-Dec-01 23:01N 36°48' W 076°18'0 0.0
2017-Dec-01 22:31N 36°48' W 076°18'0 0.0
2017-Dec-01 22:01N 36°48' W 076°18'0 0.0
2017-Dec-01 21:31N 36°48' W 076°18'0 0.0
2017-Dec-01 21:01N 36°48' W 076°18'0 0.0
2017-Dec-01 20:31N 36°48' W 076°18'0 0.0
2017-Dec-01 20:01N 36°48' W 076°18'0 0.0
2017-Dec-01 19:31N 36°48' W 076°18'0 0.0
2017-Dec-01 19:01N 36°48' W 076°18'0 0.0
2017-Dec-01 18:31N 36°48' W 076°18'0 0.0
2017-Dec-01 18:01N 36°48' W 076°18'0 0.0
2017-Dec-01 17:31N 36°48' W 076°18'  

Dump ship's entire track history